createdAt,value
2023-05-19T00:00:28.961Z,83.88
2023-05-19T00:05:35.740Z,84.09
2023-05-19T00:10:40.484Z,83.68
2023-05-19T00:15:44.761Z,84.21
2023-05-19T00:20:50.015Z,85.27
2023-05-19T00:25:54.293Z,84.52
2023-05-19T00:30:58.011Z,84.30
2023-05-19T00:36:03.872Z,84.07
2023-05-19T00:41:08.333Z,84.70
2023-05-19T00:46:12.606Z,84.02
2023-05-19T00:51:19.020Z,84.39
2023-05-19T00:56:23.037Z,83.53
2023-05-19T01:01:28.089Z,83.37
2023-05-19T01:06:33.520Z,82.85
2023-05-19T01:11:37.319Z,82.23
2023-05-19T01:16:45.249Z,81.57
2023-05-19T01:22:14.573Z,81.14
2023-05-19T01:27:42.784Z,80.67
2023-05-19T01:32:50.263Z,80.51
2023-05-19T01:37:55.949Z,80.54
2023-05-19T01:43:02.652Z,79.91
2023-05-19T01:48:10.805Z,79.43
2023-05-19T01:53:16.163Z,78.84
2023-05-19T01:58:26.223Z,78.79
2023-05-19T02:03:49.738Z,78.44
2023-05-19T02:08:59.791Z,78.15
2023-05-19T02:14:09.110Z,77.90
2023-05-19T02:19:24.014Z,77.22
2023-05-19T02:24:28.196Z,76.86
2023-05-19T02:29:32.041Z,76.61
2023-05-19T02:34:37.684Z,76.43
2023-05-19T02:39:42.159Z,76.29
2023-05-19T02:44:46.404Z,75.86
2023-05-19T02:49:51.663Z,75.93
2023-05-19T02:54:55.661Z,75.35
2023-05-19T02:59:59.669Z,75.79
2023-05-19T03:05:05.408Z,75.15
2023-05-19T03:10:10.674Z,74.63
2023-05-19T03:15:15.202Z,75.02
2023-05-19T03:20:20.675Z,74.64
2023-05-19T03:25:24.779Z,74.92
2023-05-19T03:30:28.744Z,74.98
2023-05-19T03:35:44.601Z,74.85
2023-05-19T03:40:48.964Z,74.85
2023-05-19T03:45:53.787Z,74.97
2023-05-19T03:51:19.016Z,74.61
2023-05-19T03:56:26.768Z,74.51
2023-05-19T04:01:30.957Z,74.62
2023-05-19T04:06:36.604Z,74.32
2023-05-19T04:11:40.877Z,74.20
2023-05-19T04:16:44.853Z,73.75
2023-05-19T04:21:50.074Z,73.19
2023-05-19T04:26:54.496Z,72.85
2023-05-19T04:31:58.630Z,72.62
2023-05-19T04:37:04.819Z,72.29
2023-05-19T04:42:09.211Z,71.37
2023-05-19T04:47:15.227Z,71.71
2023-05-19T04:52:22.083Z,71.24
2023-05-19T04:57:27.412Z,70.23
2023-05-19T05:02:32.339Z,69.59
2023-05-19T05:07:38.498Z,68.87
2023-05-19T05:12:43.689Z,68.00
2023-05-19T05:17:48.099Z,67.20
2023-05-19T05:22:54.772Z,67.02
2023-05-19T05:28:05.365Z,66.59
2023-05-19T05:33:12.115Z,65.20
2023-05-19T05:38:19.552Z,63.80
2023-05-19T05:43:23.671Z,62.71
2023-05-19T05:48:33.838Z,63.27
2023-05-19T05:53:44.167Z,63.50
2023-05-19T05:58:49.593Z,62.27
2023-05-19T06:03:53.497Z,62.25
2023-05-19T06:09:01.542Z,62.21
2023-05-19T06:14:06.040Z,61.57
2023-05-19T06:19:25.567Z,59.62
2023-05-19T06:24:31.072Z,58.74
2023-05-19T06:29:35.060Z,58.41
2023-05-19T06:34:41.886Z,59.35
2023-05-19T06:39:47.724Z,59.24
2023-05-19T06:44:52.712Z,55.92
2023-05-19T06:49:56.933Z,55.28
2023-05-19T06:55:05.923Z,54.59
2023-05-19T07:00:15.874Z,53.17
2023-05-19T07:05:24.869Z,52.12
2023-05-19T07:10:34.441Z,52.22
2023-05-19T07:15:39.776Z,51.64
2023-05-19T07:20:43.747Z,51.65
2023-05-19T07:25:49.135Z,52.75
2023-05-19T07:30:53.226Z,50.17
2023-05-19T07:35:56.803Z,51.16
2023-05-19T07:41:02.119Z,50.57
2023-05-19T07:46:06.513Z,51.20
2023-05-19T07:51:10.848Z,48.50
2023-05-19T07:56:16.085Z,46.75
2023-05-19T08:01:19.947Z,47.12
2023-05-19T08:06:25.384Z,47.97
2023-05-19T08:11:30.508Z,47.27
2023-05-19T08:16:34.331Z,45.39
2023-05-19T08:21:37.816Z,43.71
2023-05-19T08:26:42.920Z,44.71
2023-05-19T08:31:46.552Z,44.22
2023-05-19T08:36:50.569Z,44.10
2023-05-19T08:41:55.744Z,44.59
2023-05-19T08:47:05.175Z,45.43
2023-05-19T08:52:16.423Z,43.90
2023-05-19T08:57:22.625Z,42.93
2023-05-19T09:02:26.670Z,42.52
2023-05-19T09:07:34.867Z,42.78
2023-05-19T09:12:39.802Z,43.91
2023-05-19T09:17:44.883Z,41.14
2023-05-19T09:22:48.476Z,43.38
2023-05-19T09:27:55.841Z,43.19
2023-05-19T09:32:59.448Z,43.29
2023-05-19T09:38:03.022Z,42.91
2023-05-19T09:43:09.799Z,42.12
2023-05-19T09:48:14.040Z,42.42
2023-05-19T09:53:19.034Z,41.92
2023-05-19T09:58:24.378Z,40.75
2023-05-19T10:03:28.168Z,40.88
2023-05-19T10:08:32.785Z,40.62
2023-05-19T10:13:39.432Z,41.10
2023-05-19T10:18:43.452Z,40.61
2023-05-19T10:23:47.556Z,41.04
2023-05-19T10:28:52.784Z,41.28
2023-05-19T10:34:15.401Z,41.22
2023-05-19T10:39:23.298Z,40.21
2023-05-19T10:44:41.002Z,40.74
2023-05-19T10:49:44.613Z,40.23
2023-05-19T10:54:48.051Z,39.67
2023-05-19T10:59:53.066Z,40.16
2023-05-19T11:04:58.658Z,39.24
2023-05-19T11:10:07.307Z,37.94
2023-05-19T11:15:14.700Z,40.17
2023-05-19T11:20:27.113Z,38.72
2023-05-19T11:25:43.806Z,38.75
2023-05-19T11:30:51.888Z,38.36
2023-05-19T11:35:58.251Z,37.38
2023-05-19T11:41:02.238Z,37.87
2023-05-19T11:46:07.178Z,38.01
2023-05-19T11:51:11.073Z,37.91
2023-05-19T11:56:15.328Z,37.82
2023-05-19T12:01:20.237Z,39.04
2023-05-19T12:06:23.832Z,37.32
2023-05-19T12:11:30.188Z,37.72
2023-05-19T12:16:38.196Z,36.26
2023-05-19T12:21:42.654Z,37.51
2023-05-19T12:26:46.149Z,36.23
2023-05-19T12:31:51.266Z,35.55
2023-05-19T12:36:54.737Z,37.57
2023-05-19T12:42:03.392Z,36.16
2023-05-19T12:47:08.350Z,37.00
2023-05-19T12:52:15.254Z,37.45
2023-05-19T12:57:18.711Z,36.23
2023-05-19T13:02:26.064Z,36.04
2023-05-19T13:07:29.970Z,36.03
2023-05-19T13:12:33.613Z,36.56
2023-05-19T13:17:38.663Z,35.81
2023-05-19T13:22:42.268Z,35.71
2023-05-19T13:27:46.400Z,36.65
2023-05-19T13:32:52.627Z,36.74
2023-05-19T13:37:56.430Z,36.62
2023-05-19T13:43:00.216Z,36.86
2023-05-19T13:48:07.489Z,36.96
2023-05-19T13:53:11.690Z,36.88
2023-05-19T13:58:17.085Z,37.03
2023-05-19T14:03:22.554Z,37.39
2023-05-19T14:08:26.262Z,37.61
2023-05-19T14:13:35.194Z,37.91
2023-05-19T14:18:42.154Z,37.66
2023-05-19T14:23:46.469Z,36.97
2023-05-19T14:28:49.997Z,37.75
2023-05-19T14:33:55.061Z,38.87
2023-05-19T14:38:58.874Z,38.32
2023-05-19T14:44:03.290Z,37.80
2023-05-19T14:49:08.156Z,38.42
2023-05-19T14:54:11.972Z,39.21
2023-05-19T14:59:15.819Z,38.82
2023-05-19T15:04:21.163Z,38.54
2023-05-19T15:09:24.948Z,38.41
2023-05-19T15:14:30.522Z,38.25
2023-05-19T15:19:36.310Z,38.76
2023-05-19T15:24:41.249Z,38.93
2023-05-19T15:29:45.082Z,39.17
2023-05-19T15:34:50.535Z,39.68
2023-05-19T15:39:55.129Z,39.61
2023-05-19T15:44:59.139Z,39.93
2023-05-19T15:50:05.088Z,40.69
2023-05-19T15:55:10.386Z,40.35
2023-05-19T16:00:15.356Z,40.72
2023-05-19T16:05:21.300Z,40.65
2023-05-19T16:10:25.780Z,40.63
2023-05-19T16:15:30.882Z,41.01
2023-05-19T16:20:37.111Z,41.17
2023-05-19T16:25:41.831Z,41.50
2023-05-19T16:30:46.794Z,41.96
2023-05-19T16:36:07.408Z,41.94
2023-05-19T16:41:19.649Z,42.56
2023-05-19T16:47:36.285Z,42.86
2023-05-19T16:53:26.463Z,43.76
2023-05-19T17:04:40.011Z,44.44
2023-05-19T17:09:45.724Z,44.30
2023-05-19T17:14:50.485Z,44.45
2023-05-19T17:19:54.402Z,50.16
2023-05-19T17:24:59.305Z,54.27
2023-05-19T17:30:03.546Z,55.58
2023-05-19T17:35:09.704Z,55.03
2023-05-19T17:40:15.341Z,56.39
2023-05-19T17:45:19.024Z,57.70
2023-05-19T17:50:22.548Z,59.46
2023-05-19T17:55:30.459Z,60.69
2023-05-19T18:00:34.562Z,60.92
2023-05-19T18:05:40.162Z,61.76
2023-05-19T18:10:46.181Z,61.58
2023-05-19T18:15:49.981Z,62.29
2023-05-19T18:20:54.906Z,62.23
2023-05-19T18:25:59.984Z,62.17
2023-05-19T18:31:05.958Z,62.22
2023-05-19T18:36:10.107Z,62.38
2023-05-19T18:41:15.738Z,62.28
2023-05-19T18:46:19.668Z,62.26
2023-05-19T18:51:23.725Z,62.01
2023-05-19T18:56:31.138Z,61.72
2023-05-19T19:01:35.126Z,61.44
2023-05-19T19:06:38.687Z,61.45
2023-05-19T19:11:43.618Z,60.90
2023-05-19T19:16:47.172Z,60.90
2023-05-19T19:21:50.765Z,60.76
2023-05-19T19:26:57.017Z,60.36
2023-05-19T19:32:00.582Z,60.49
2023-05-19T19:37:05.330Z,60.66
2023-05-19T19:42:10.341Z,60.67
2023-05-19T19:47:14.172Z,61.06
2023-05-19T19:52:18.765Z,61.38
2023-05-19T19:57:24.083Z,61.76
2023-05-19T20:02:27.861Z,62.32
2023-05-19T20:07:32.272Z,62.59
2023-05-19T20:12:37.593Z,63.44
2023-05-19T20:17:41.114Z,63.67
2023-05-19T20:22:46.159Z,63.09
2023-05-19T20:27:51.427Z,64.16
2023-05-19T20:32:55.387Z,63.69
2023-05-19T20:37:58.963Z,64.17
2023-05-19T20:43:03.915Z,63.58
2023-05-19T20:48:07.763Z,63.41
2023-05-19T20:53:11.393Z,63.01
2023-05-19T20:58:16.611Z,63.26
2023-05-19T21:03:23.311Z,63.29
2023-05-19T21:08:27.594Z,63.19
2023-05-19T21:13:33.936Z,63.04
2023-05-19T21:18:37.479Z,62.93
2023-05-19T21:23:41.132Z,63.31
2023-05-19T21:28:46.369Z,63.45
2023-05-19T21:33:50.123Z,63.80
2023-05-19T21:38:54.460Z,63.73
2023-05-19T21:43:59.606Z,63.85
2023-05-19T21:49:03.041Z,64.29
2023-05-19T21:54:06.880Z,64.55
2023-05-19T21:59:12.185Z,65.05
2023-05-19T22:04:17.875Z,64.87
2023-05-19T22:09:22.108Z,64.87
2023-05-19T22:14:26.971Z,65.57
2023-05-19T22:19:30.470Z,65.34
2023-05-19T22:24:34.325Z,65.34
2023-05-19T22:29:39.865Z,65.44
2023-05-19T22:34:43.675Z,65.58
2023-05-19T22:39:47.565Z,66.08
2023-05-19T22:44:52.937Z,65.91
2023-05-19T22:49:57.239Z,66.09
2023-05-19T22:55:01.194Z,66.11
2023-05-19T23:00:09.906Z,67.28
2023-05-19T23:05:13.484Z,66.75
2023-05-19T23:10:17.384Z,67.21
2023-05-19T23:15:22.725Z,67.48
2023-05-19T23:20:26.322Z,68.23
2023-05-19T23:25:29.893Z,68.36
2023-05-19T23:30:38.194Z,68.78
2023-05-19T23:35:41.946Z,68.98
2023-05-19T23:40:45.528Z,69.59
2023-05-19T23:45:50.716Z,70.23
2023-05-19T23:50:54.448Z,69.95
2023-05-19T23:55:58.810Z,69.98
